Coffee City, Texas
Current Conditions -  °F | °C
As of 8:55 AM on Wednesday 26 Nov 2014 (Local Time) from KPSN Reporting Station
Clear Clear  
Wind Chill: 47°   Ceiling: Unl
Heat Index: 49°   Visibility: 10mi
Dew Point: 35°   Wind: 7mph
Humidity: 58%   Direction: 200°SSW
Pressure: 30.18"   Gusts: NA
Location:  32.0056°N, 95.5543°W
Report Text: KPSN 261455Z AUTO 20006KT 10SM CLR 10/01 A3018 RMK AO2 T00970019
Loading
Personal Weather Stations






























Interactive Weather Map New forecast layout! Learn more

10-Day Weather Forecast

Advertisements
Track Severe Weather on mobile